Terminal Aerodrome Forecast
Issued by NWS

Home | Current Version | Previous Version | Graphics & Text | Print | Product List | Glossary On
Versions: 1 2 3 4 5 6 7 8 9 10 11 12 13 14
449
FTUS43 KICT 291941 AAA
TAFSLN
TAF AMD
KSLN 291941Z 2920/3018 19007KT P6SM VCTS SCT040CB
      TEMPO 2920/2922 3SM TSRA BKN025CB
     FM300200 17007KT P6SM SCT040 BKN080
     FM301200 19007KT P6SM SCT015=

USA.gov is the U.S. government's official web portal to all federal, state and local government web resources and services.